sensor_id;sensor_type;location;lat;lon;timestamp;temperature;humidity
77467;DHT22;66564;42.482;25.548;2023-04-03T00:01:56;12.02;53.49
77467;DHT22;66564;42.482;25.548;2023-04-03T00:04:22;11.96;53.12
77467;DHT22;66564;42.482;25.548;2023-04-03T00:06:47;12.02;53.15
77467;DHT22;66564;42.482;25.548;2023-04-03T00:09:13;12.03;53.00
77467;DHT22;66564;42.482;25.548;2023-04-03T00:11:38;11.96;52.94
77467;DHT22;66564;42.482;25.548;2023-04-03T00:14:03;11.95;52.71
77467;DHT22;66564;42.482;25.548;2023-04-03T00:16:29;11.88;53.27
77467;DHT22;66564;42.482;25.548;2023-04-03T00:18:55;11.98;52.91
77467;DHT22;66564;42.482;25.548;2023-04-03T00:21:20;11.92;52.68
77467;DHT22;66564;42.482;25.548;2023-04-03T00:23:46;11.89;52.63
77467;DHT22;66564;42.482;25.548;2023-04-03T00:26:11;11.92;52.47
77467;DHT22;66564;42.482;25.548;2023-04-03T00:28:37;11.85;53.49
77467;DHT22;66564;42.482;25.548;2023-04-03T00:31:03;11.83;52.81
77467;DHT22;66564;42.482;25.548;2023-04-03T00:33:28;11.65;54.05
77467;DHT22;66564;42.482;25.548;2023-04-03T00:35:54;11.71;53.01
77467;DHT22;66564;42.482;25.548;2023-04-03T00:38:20;11.82;53.42
77467;DHT22;66564;42.482;25.548;2023-04-03T00:40:47;11.69;52.69
77467;DHT22;66564;42.482;25.548;2023-04-03T00:43:22;11.79;52.98
77467;DHT22;66564;42.482;25.548;2023-04-03T00:45:49;11.79;53.67
77467;DHT22;66564;42.482;25.548;2023-04-03T00:48:20;11.83;54.05
77467;DHT22;66564;42.482;25.548;2023-04-03T00:51:06;11.61;53.55
77467;DHT22;66564;42.482;25.548;2023-04-03T00:54:31;11.44;54.77
77467;DHT22;66564;42.482;25.548;2023-04-03T00:57:56;11.30;54.56
77467;DHT22;66564;42.482;25.548;2023-04-03T01:01:22;11.24;55.22
77467;DHT22;66564;42.482;25.548;2023-04-03T01:04:52;11.14;55.36
77467;DHT22;66564;42.482;25.548;2023-04-03T01:08:18;11.10;55.21
77467;DHT22;66564;42.482;25.548;2023-04-03T01:11:03;11.10;55.46
77467;DHT22;66564;42.482;25.548;2023-04-03T01:14:28;11.27;54.60
77467;DHT22;66564;42.482;25.548;2023-04-03T01:26:42;11.23;54.82
77467;DHT22;66564;42.482;25.548;2023-04-03T01:30:07;11.15;55.30
77467;DHT22;66564;42.482;25.548;2023-04-03T01:33:32;11.11;55.05
77467;DHT22;66564;42.482;25.548;2023-04-03T01:36:58;10.93;55.97
77467;DHT22;66564;42.482;25.548;2023-04-03T01:40:23;10.90;56.32
77467;DHT22;66564;42.482;25.548;2023-04-03T01:43:29;10.81;56.37
77467;DHT22;66564;42.482;25.548;2023-04-03T01:46:15;10.89;55.98
77467;DHT22;66564;42.482;25.548;2023-04-03T01:49:40;11.11;55.11
77467;DHT22;66564;42.482;25.548;2023-04-03T01:53:05;11.27;54.61
77467;DHT22;66564;42.482;25.548;2023-04-03T01:56:31;11.37;54.77
77467;DHT22;66564;42.482;25.548;2023-04-03T01:59:56;11.34;54.64
77467;DHT22;66564;42.482;25.548;2023-04-03T02:03:22;11.30;55.32
77467;DHT22;66564;42.482;25.548;2023-04-03T02:06:49;11.15;55.49
77467;DHT22;66564;42.482;25.548;2023-04-03T02:10:14;11.20;54.92
77467;DHT22;66564;42.482;25.548;2023-04-03T02:13:39;11.24;54.28
77467;DHT22;66564;42.482;25.548;2023-04-03T02:17:05;11.27;54.20
77467;DHT22;66564;42.482;25.548;2023-04-03T02:20:30;11.32;54.40
77467;DHT22;66564;42.482;25.548;2023-04-03T02:23:55;11.34;54.43
77467;DHT22;66564;42.482;25.548;2023-04-03T02:27:20;11.30;54.25
77467;DHT22;66564;42.482;25.548;2023-04-03T02:30:46;11.24;54.78
77467;DHT22;66564;42.482;25.548;2023-04-03T02:34:11;11.28;55.02
77467;DHT22;66564;42.482;25.548;2023-04-03T02:37:36;11.24;54.55
77467;DHT22;66564;42.482;25.548;2023-04-03T02:41:02;11.30;54.45
77467;DHT22;66564;42.482;25.548;2023-04-03T02:44:27;11.11;54.98
77467;DHT22;66564;42.482;25.548;2023-04-03T02:47:52;11.17;54.88
77467;DHT22;66564;42.482;25.548;2023-04-03T02:51:17;11.17;54.64
77467;DHT22;66564;42.482;25.548;2023-04-03T02:54:22;11.07;55.22
77467;DHT22;66564;42.482;25.548;2023-04-03T02:57:09;11.04;55.67
77467;DHT22;66564;42.482;25.548;2023-04-03T03:00:34;11.11;55.77
77467;DHT22;66564;42.482;25.548;2023-04-03T03:04:00;11.17;55.24
77467;DHT22;66564;42.482;25.548;2023-04-03T03:07:27;11.14;54.77
77467;DHT22;66564;42.482;25.548;2023-04-03T03:10:52;11.06;55.02
77467;DHT22;66564;42.482;25.548;2023-04-03T03:14:18;11.00;55.30
77467;DHT22;66564;42.482;25.548;2023-04-03T03:17:43;11.07;54.93
77467;DHT22;66564;42.482;25.548;2023-04-03T03:21:11;11.11;54.78
77467;DHT22;66564;42.482;25.548;2023-04-03T03:24:36;11.11;54.41
77467;DHT22;66564;42.482;25.548;2023-04-03T03:28:03;11.17;54.20
77467;DHT22;66564;42.482;25.548;2023-04-03T03:31:28;11.18;54.39
77467;DHT22;66564;42.482;25.548;2023-04-03T03:34:53;11.17;53.96
77467;DHT22;66564;42.482;25.548;2023-04-03T03:38:19;11.24;54.93
77467;DHT22;66564;42.482;25.548;2023-04-03T03:41:46;11.21;54.26
77467;DHT22;66564;42.482;25.548;2023-04-03T03:45:11;11.15;54.21
77467;DHT22;66564;42.482;25.548;2023-04-03T03:48:36;11.14;54.31
77467;DHT22;66564;42.482;25.548;2023-04-03T03:52:02;11.06;55.05
77467;DHT22;66564;42.482;25.548;2023-04-03T03:55:27;11.11;54.59
77467;DHT22;66564;42.482;25.548;2023-04-03T03:58:52;11.06;55.35
77467;DHT22;66564;42.482;25.548;2023-04-03T04:02:20;11.06;54.46
77467;DHT22;66564;42.482;25.548;2023-04-03T04:05:25;11.13;54.63
77467;DHT22;66564;42.482;25.548;2023-04-03T04:08:12;11.03;55.31
77467;DHT22;66564;42.482;25.548;2023-04-03T04:11:37;10.97;55.22
77467;DHT22;66564;42.482;25.548;2023-04-03T04:15:03;10.92;55.23
77467;DHT22;66564;42.482;25.548;2023-04-03T04:18:28;10.94;54.70
77467;DHT22;66564;42.482;25.548;2023-04-03T04:21:53;10.93;55.09
77467;DHT22;66564;42.482;25.548;2023-04-03T04:25:18;11.00;55.36
77467;DHT22;66564;42.482;25.548;2023-04-03T04:28:44;11.00;55.50
77467;DHT22;66564;42.482;25.548;2023-04-03T04:32:09;10.93;55.85
77467;DHT22;66564;42.482;25.548;2023-04-03T04:35:14;10.96;56.35
77467;DHT22;66564;42.482;25.548;2023-04-03T04:37:40;10.97;57.12
77467;DHT22;66564;42.482;25.548;2023-04-03T04:40:06;11.04;57.01
77467;DHT22;66564;42.482;25.548;2023-04-03T04:42:32;11.07;56.79
77467;DHT22;66564;42.482;25.548;2023-04-03T04:44:57;11.15;56.49
77467;DHT22;66564;42.482;25.548;2023-04-03T04:47:22;11.28;56.10
77467;DHT22;66564;42.482;25.548;2023-04-03T04:49:48;11.32;57.91
77467;DHT22;66564;42.482;25.548;2023-04-03T04:52:14;11.52;58.22
77467;DHT22;66564;42.482;25.548;2023-04-03T04:54:39;11.51;57.81
77467;DHT22;66564;42.482;25.548;2023-04-03T04:57:05;11.54;57.94
77467;DHT22;66564;42.482;25.548;2023-04-03T04:59:31;11.75;57.56
77467;DHT22;66564;42.482;25.548;2023-04-03T05:02:16;11.86;57.08
77467;DHT22;66564;42.482;25.548;2023-04-03T05:05:42;12.05;56.32
77467;DHT22;66564;42.482;25.548;2023-04-03T05:09:07;12.28;55.85
77467;DHT22;66564;42.482;25.548;2023-04-03T05:12:32;12.46;55.56
77467;DHT22;66564;42.482;25.548;2023-04-03T05:15:38;12.68;52.89
77467;DHT22;66564;42.482;25.548;2023-04-03T05:18:25;12.88;52.26
77467;DHT22;66564;42.482;25.548;2023-04-03T05:21:51;13.08;50.49
77467;DHT22;66564;42.482;25.548;2023-04-03T05:25:16;13.37;50.29
77467;DHT22;66564;42.482;25.548;2023-04-03T05:28:41;13.63;51.10
77467;DHT22;66564;42.482;25.548;2023-04-03T05:32:06;13.86;49.65
77467;DHT22;66564;42.482;25.548;2023-04-03T05:35:35;13.90;47.59
77467;DHT22;66564;42.482;25.548;2023-04-03T05:38:59;13.79;46.29
77467;DHT22;66564;42.482;25.548;2023-04-03T05:42:26;13.66;46.99
77467;DHT22;66564;42.482;25.548;2023-04-03T05:45:51;13.61;47.70
77467;DHT22;66564;42.482;25.548;2023-04-03T05:49:17;13.82;48.35
77467;DHT22;66564;42.482;25.548;2023-04-03T05:52:26;13.66;46.92
77467;DHT22;66564;42.482;25.548;2023-04-03T05:55:50;13.82;46.67
77467;DHT22;66564;42.482;25.548;2023-04-03T05:59:16;13.96;47.73
77467;DHT22;66564;42.482;25.548;2023-04-03T06:02:44;14.12;46.41
77467;DHT22;66564;42.482;25.548;2023-04-03T06:06:06;14.23;46.28
77467;DHT22;66564;42.482;25.548;2023-04-03T06:09:31;14.34;45.66
77467;DHT22;66564;42.482;25.548;2023-04-03T06:12:56;14.41;45.86
77467;DHT22;66564;42.482;25.548;2023-04-03T06:16:22;14.48;46.38
77467;DHT22;66564;42.482;25.548;2023-04-03T06:19:48;14.59;45.62
77467;DHT22;66564;42.482;25.548;2023-04-03T06:23:13;14.68;45.53
77467;DHT22;66564;42.482;25.548;2023-04-03T06:26:19;14.74;44.88
77467;DHT22;66564;42.482;25.548;2023-04-03T06:28:46;14.73;45.03
77467;DHT22;66564;42.482;25.548;2023-04-03T06:31:11;14.73;44.93
77467;DHT22;66564;42.482;25.548;2023-04-03T06:33:37;14.83;44.58
77467;DHT22;66564;42.482;25.548;2023-04-03T06:36:05;14.84;44.62
77467;DHT22;66564;42.482;25.548;2023-04-03T06:38:52;14.81;44.93
77467;DHT22;66564;42.482;25.548;2023-04-03T06:41:36;14.88;44.55
77467;DHT22;66564;42.482;25.548;2023-04-03T06:44:22;14.84;43.62
77467;DHT22;66564;42.482;25.548;2023-04-03T06:47:47;14.92;44.43
77467;DHT22;66564;42.482;25.548;2023-04-03T06:50:56;14.87;44.80
77467;DHT22;66564;42.482;25.548;2023-04-03T06:53:22;14.97;45.25
77467;DHT22;66564;42.482;25.548;2023-04-03T06:55:47;15.05;45.02
77467;DHT22;66564;42.482;25.548;2023-04-03T06:58:13;15.21;45.33
77467;DHT22;66564;42.482;25.548;2023-04-03T07:00:49;15.14;45.42
77467;DHT22;66564;42.482;25.548;2023-04-03T07:03:39;15.30;45.00
77467;DHT22;66564;42.482;25.548;2023-04-03T07:07:04;15.32;44.75
77467;DHT22;66564;42.482;25.548;2023-04-03T07:10:31;15.42;44.18
77467;DHT22;66564;42.482;25.548;2023-04-03T07:13:56;15.49;45.00
77467;DHT22;66564;42.482;25.548;2023-04-03T07:17:21;15.44;44.69
77467;DHT22;66564;42.482;25.548;2023-04-03T07:20:46;15.49;44.81
77467;DHT22;66564;42.482;25.548;2023-04-03T07:24:12;15.58;44.84
77467;DHT22;66564;42.482;25.548;2023-04-03T07:27:37;15.67;44.43
77467;DHT22;66564;42.482;25.548;2023-04-03T07:31:03;15.75;43.96
77467;DHT22;66564;42.482;25.548;2023-04-03T07:34:29;15.69;44.20
77467;DHT22;66564;42.482;25.548;2023-04-03T07:37:55;15.89;43.93
77467;DHT22;66564;42.482;25.548;2023-04-03T07:41:25;16.09;43.04
77467;DHT22;66564;42.482;25.548;2023-04-03T07:44:53;16.06;42.78
77467;DHT22;66564;42.482;25.548;2023-04-03T07:48:19;16.00;42.83
77467;DHT22;66564;42.482;25.548;2023-04-03T07:51:43;16.03;43.40
77467;DHT22;66564;42.482;25.548;2023-04-03T07:55:08;16.19;42.99
77467;DHT22;66564;42.482;25.548;2023-04-03T07:58:33;16.10;42.72
77467;DHT22;66564;42.482;25.548;2023-04-03T08:02:04;15.90;43.09
77467;DHT22;66564;42.482;25.548;2023-04-03T08:05:09;16.16;42.87
77467;DHT22;66564;42.482;25.548;2023-04-03T08:08:34;16.23;43.05
77467;DHT22;66564;42.482;25.548;2023-04-03T08:11:39;16.34;41.91
77467;DHT22;66564;42.482;25.548;2023-04-03T08:14:25;16.37;42.35
77467;DHT22;66564;42.482;25.548;2023-04-03T08:17:50;16.44;42.58
77467;DHT22;66564;42.482;25.548;2023-04-03T08:21:15;16.43;42.73
77467;DHT22;66564;42.482;25.548;2023-04-03T08:24:41;16.46;41.71
77467;DHT22;66564;42.482;25.548;2023-04-03T08:28:06;16.56;41.93
77467;DHT22;66564;42.482;25.548;2023-04-03T08:31:31;16.46;40.36
77467;DHT22;66564;42.482;25.548;2023-04-03T08:34:56;16.67;39.95
77467;DHT22;66564;42.482;25.548;2023-04-03T08:38:22;16.70;40.29
77467;DHT22;66564;42.482;25.548;2023-04-03T08:44:49;16.98;40.73
77467;DHT22;66564;42.482;25.548;2023-04-03T08:48:16;17.21;41.04
77467;DHT22;66564;42.482;25.548;2023-04-03T08:51:40;17.43;39.93
77467;DHT22;66564;42.482;25.548;2023-04-03T08:54:50;17.58;39.16
77467;DHT22;66564;42.482;25.548;2023-04-03T08:58:18;17.53;40.12
77467;DHT22;66564;42.482;25.548;2023-04-03T09:01:30;17.48;39.81
77467;DHT22;66564;42.482;25.548;2023-04-03T09:04:49;17.36;40.84
77467;DHT22;66564;42.482;25.548;2023-04-03T09:08:22;17.50;39.83
77467;DHT22;66564;42.482;25.548;2023-04-03T09:14:46;17.25;40.47
77467;DHT22;66564;42.482;25.548;2023-04-03T09:17:22;17.48;39.84
77467;DHT22;66564;42.482;25.548;2023-04-03T09:20:06;17.55;40.05
77467;DHT22;66564;42.482;25.548;2023-04-03T09:22:38;17.36;40.79
77467;DHT22;66564;42.482;25.548;2023-04-03T09:27:48;17.31;40.53
77467;DHT22;66564;42.482;25.548;2023-04-03T09:30:16;17.11;41.04
77467;DHT22;66564;42.482;25.548;2023-04-03T09:32:45;17.22;41.49
77467;DHT22;66564;42.482;25.548;2023-04-03T09:41:26;16.50;41.88
77467;DHT22;66564;42.482;25.548;2023-04-03T09:44:55;16.72;41.63
77467;DHT22;66564;42.482;25.548;2023-04-03T09:53:56;16.36;42.97
77467;DHT22;66564;42.482;25.548;2023-04-03T09:57:09;16.29;41.45
77467;DHT22;66564;42.482;25.548;2023-04-03T09:59:58;16.19;42.07
77467;DHT22;66564;42.482;25.548;2023-04-03T10:03:24;15.78;42.76
77467;DHT22;66564;42.482;25.548;2023-04-03T10:06:31;15.81;43.53
77467;DHT22;66564;42.482;25.548;2023-04-03T10:12:11;15.65;43.27
77467;DHT22;66564;42.482;25.548;2023-04-03T10:15:00;15.55;43.93
77467;DHT22;66564;42.482;25.548;2023-04-03T10:21:29;15.10;44.35
77467;DHT22;66564;42.482;25.548;2023-04-03T10:27:16;15.10;46.01
77467;DHT22;66564;42.482;25.548;2023-04-03T10:33:36;14.59;46.23
77467;DHT22;66564;42.482;25.548;2023-04-03T10:37:19;14.70;46.29
77467;DHT22;66564;42.482;25.548;2023-04-03T10:39:50;14.46;47.00
77467;DHT22;66564;42.482;25.548;2023-04-03T10:53:55;14.55;47.60
77467;DHT22;66564;42.482;25.548;2023-04-03T10:59:27;14.46;46.87
77467;DHT22;66564;42.482;25.548;2023-04-03T11:02:22;14.48;47.83
77467;DHT22;66564;42.482;25.548;2023-04-03T11:04:52;14.30;48.60
77467;DHT22;66564;42.482;25.548;2023-04-03T11:07:29;14.36;47.94
77467;DHT22;66564;42.482;25.548;2023-04-03T11:10:02;14.37;47.83
77467;DHT22;66564;42.482;25.548;2023-04-03T11:15:02;14.55;48.89
77467;DHT22;66564;42.482;25.548;2023-04-03T11:17:43;14.60;50.07
77467;DHT22;66564;42.482;25.548;2023-04-03T11:22:45;14.26;52.58
77467;DHT22;66564;42.482;25.548;2023-04-03T11:28:02;14.38;54.08
77467;DHT22;66564;42.482;25.548;2023-04-03T11:36:13;14.26;56.68
77467;DHT22;66564;42.482;25.548;2023-04-03T11:38:46;14.30;56.09
77467;DHT22;66564;42.482;25.548;2023-04-03T11:41:13;14.34;56.67
77467;DHT22;66564;42.482;25.548;2023-04-03T11:43:57;14.46;56.68
77467;DHT22;66564;42.482;25.548;2023-04-03T11:49:50;14.33;57.84
77467;DHT22;66564;42.482;25.548;2023-04-03T12:05:49;13.83;62.18
77467;DHT22;66564;42.482;25.548;2023-04-03T12:14:03;13.86;62.74
77467;DHT22;66564;42.482;25.548;2023-04-03T12:18:57;13.99;62.98
77467;DHT22;66564;42.482;25.548;2023-04-03T12:24:24;13.89;63.71
77467;DHT22;66564;42.482;25.548;2023-04-03T12:27:03;13.87;64.49
77467;DHT22;66564;42.482;25.548;2023-04-03T12:46:44;13.79;65.43
77467;DHT22;66564;42.482;25.548;2023-04-03T12:51:54;13.76;67.46
77467;DHT22;66564;42.482;25.548;2023-04-03T12:54:26;13.75;66.99
77467;DHT22;66564;42.482;25.548;2023-04-03T12:57:09;13.71;67.39
77467;DHT22;66564;42.482;25.548;2023-04-03T12:59:35;13.72;68.21
77467;DHT22;66564;42.482;25.548;2023-04-03T13:02:23;13.71;68.20
77467;DHT22;66564;42.482;25.548;2023-04-03T13:05:28;13.66;68.94
77467;DHT22;66564;42.482;25.548;2023-04-03T13:08:02;13.69;69.03
77467;DHT22;66564;42.482;25.548;2023-04-03T13:10:28;13.49;70.55
77467;DHT22;66564;42.482;25.548;2023-04-03T13:13:06;13.52;70.95
77467;DHT22;66564;42.482;25.548;2023-04-03T13:15:45;13.57;71.15
77467;DHT22;66564;42.482;25.548;2023-04-03T13:18:30;13.45;71.61
77467;DHT22;66564;42.482;25.548;2023-04-03T13:21:05;13.44;71.47
77467;DHT22;66564;42.482;25.548;2023-04-03T13:23:45;13.34;72.03
77467;DHT22;66564;42.482;25.548;2023-04-03T13:26:11;13.25;71.96
77467;DHT22;66564;42.482;25.548;2023-04-03T13:28:40;13.25;71.67
77467;DHT22;66564;42.482;25.548;2023-04-03T13:31:18;13.28;72.01
77467;DHT22;66564;42.482;25.548;2023-04-03T13:33:57;13.19;73.17
77467;DHT22;66564;42.482;25.548;2023-04-03T13:36:35;13.27;73.20
77467;DHT22;66564;42.482;25.548;2023-04-03T13:41:39;13.34;72.63
77467;DHT22;66564;42.482;25.548;2023-04-03T13:44:26;13.18;72.06
77467;DHT22;66564;42.482;25.548;2023-04-03T13:47:13;12.73;73.87
77467;DHT22;66564;42.482;25.548;2023-04-03T13:49:43;12.70;74.43
77467;DHT22;66564;42.482;25.548;2023-04-03T13:52:23;12.81;74.13
77467;DHT22;66564;42.482;25.548;2023-04-03T13:54:56;12.83;74.57
77467;DHT22;66564;42.482;25.548;2023-04-03T13:57:58;12.84;73.93
77467;DHT22;66564;42.482;25.548;2023-04-03T14:01:44;12.81;74.04
77467;DHT22;66564;42.482;25.548;2023-04-03T14:04:58;12.84;73.70
77467;DHT22;66564;42.482;25.548;2023-04-03T14:08:03;12.76;74.19
77467;DHT22;66564;42.482;25.548;2023-04-03T14:11:32;12.70;73.66
77467;DHT22;66564;42.482;25.548;2023-04-03T14:14:57;12.59;75.67
77467;DHT22;66564;42.482;25.548;2023-04-03T14:18:22;12.46;75.61
77467;DHT22;66564;42.482;25.548;2023-04-03T14:21:48;12.49;75.84
77467;DHT22;66564;42.482;25.548;2023-04-03T14:25:13;12.29;76.71
77467;DHT22;66564;42.482;25.548;2023-04-03T14:28:38;12.36;76.69
77467;DHT22;66564;42.482;25.548;2023-04-03T14:32:03;12.32;77.01
77467;DHT22;66564;42.482;25.548;2023-04-03T14:35:28;12.22;77.55
77467;DHT22;66564;42.482;25.548;2023-04-03T14:38:54;12.22;76.75
77467;DHT22;66564;42.482;25.548;2023-04-03T14:41:48;12.25;76.57
77467;DHT22;66564;42.482;25.548;2023-04-03T14:45:14;12.15;76.29
77467;DHT22;66564;42.482;25.548;2023-04-03T14:48:38;12.08;76.16
77467;DHT22;66564;42.482;25.548;2023-04-03T14:52:04;12.19;76.07
77467;DHT22;66564;42.482;25.548;2023-04-03T14:55:29;12.25;75.03
77467;DHT22;66564;42.482;25.548;2023-04-03T14:58:58;12.22;75.41
77467;DHT22;66564;42.482;25.548;2023-04-03T15:05:30;11.96;76.10
77467;DHT22;66564;42.482;25.548;2023-04-03T15:08:57;11.95;76.15
77467;DHT22;66564;42.482;25.548;2023-04-03T15:12:22;11.99;74.99
77467;DHT22;66564;42.482;25.548;2023-04-03T15:15:29;11.86;75.00
77467;DHT22;66564;42.482;25.548;2023-04-03T15:18:38;11.96;74.84
77467;DHT22;66564;42.482;25.548;2023-04-03T15:22:03;11.99;74.76
77467;DHT22;66564;42.482;25.548;2023-04-03T15:25:28;11.96;74.67
77467;DHT22;66564;42.482;25.548;2023-04-03T15:28:53;11.78;74.69
77467;DHT22;66564;42.482;25.548;2023-04-03T15:31:59;11.91;74.87
77467;DHT22;66564;42.482;25.548;2023-04-03T15:34:24;11.86;74.63
77467;DHT22;66564;42.482;25.548;2023-04-03T15:36:50;11.78;74.55
77467;DHT22;66564;42.482;25.548;2023-04-03T15:39:17;11.69;74.35
77467;DHT22;66564;42.482;25.548;2023-04-03T15:41:44;11.64;74.65
77467;DHT22;66564;42.482;25.548;2023-04-03T15:44:10;11.71;73.93
77467;DHT22;66564;42.482;25.548;2023-04-03T15:46:37;11.69;73.13
77467;DHT22;66564;42.482;25.548;2023-04-03T15:49:06;11.39;74.58
77467;DHT22;66564;42.482;25.548;2023-04-03T15:51:32;11.44;74.49
77467;DHT22;66564;42.482;25.548;2023-04-03T15:53:58;11.42;73.18
77467;DHT22;66564;42.482;25.548;2023-04-03T15:56:23;11.28;73.79
77467;DHT22;66564;42.482;25.548;2023-04-03T15:58:49;11.18;72.24
77467;DHT22;66564;42.482;25.548;2023-04-03T16:01:34;11.21;72.76
77467;DHT22;66564;42.482;25.548;2023-04-03T16:05:00;11.11;71.57
77467;DHT22;66564;42.482;25.548;2023-04-03T16:08:25;10.67;72.99
77467;DHT22;66564;42.482;25.548;2023-04-03T16:11:34;10.70;73.35
77467;DHT22;66564;42.482;25.548;2023-04-03T16:14:02;10.50;74.30
77467;DHT22;66564;42.482;25.548;2023-04-03T16:16:28;10.62;74.23
77467;DHT22;66564;42.482;25.548;2023-04-03T16:18:55;10.66;74.15
77467;DHT22;66564;42.482;25.548;2023-04-03T16:21:21;10.64;74.25
77467;DHT22;66564;42.482;25.548;2023-04-03T16:23:48;10.60;74.52
77467;DHT22;66564;42.482;25.548;2023-04-03T16:26:14;10.60;74.32
77467;DHT22;66564;42.482;25.548;2023-04-03T16:28:40;10.57;74.83
77467;DHT22;66564;42.482;25.548;2023-04-03T16:31:26;10.59;74.07
77467;DHT22;66564;42.482;25.548;2023-04-03T16:34:51;10.35;75.38
77467;DHT22;66564;42.482;25.548;2023-04-03T16:38:16;10.35;75.41
77467;DHT22;66564;42.482;25.548;2023-04-03T16:41:41;10.35;75.54
77467;DHT22;66564;42.482;25.548;2023-04-03T16:45:06;10.35;76.08
77467;DHT22;66564;42.482;25.548;2023-04-03T16:48:31;10.26;75.50
77467;DHT22;66564;42.482;25.548;2023-04-03T16:51:57;10.40;75.21
77467;DHT22;66564;42.482;25.548;2023-04-03T16:55:22;10.25;74.32
77467;DHT22;66564;42.482;25.548;2023-04-03T16:58:47;10.39;73.64
77467;DHT22;66564;42.482;25.548;2023-04-03T17:02:13;10.25;73.44
77467;DHT22;66564;42.482;25.548;2023-04-03T17:05:39;10.20;73.38
77467;DHT22;66564;42.482;25.548;2023-04-03T17:09:05;10.25;73.02
77467;DHT22;66564;42.482;25.548;2023-04-03T17:12:31;9.99;73.49
77467;DHT22;66564;42.482;25.548;2023-04-03T17:15:57;9.86;75.21
77467;DHT22;66564;42.482;25.548;2023-04-03T17:19:22;9.99;75.52
77467;DHT22;66564;42.482;25.548;2023-04-03T17:22:47;9.89;74.89
77467;DHT22;66564;42.482;25.548;2023-04-03T17:26:12;9.89;75.51
77467;DHT22;66564;42.482;25.548;2023-04-03T17:29:38;9.84;76.28
77467;DHT22;66564;42.482;25.548;2023-04-03T17:33:03;9.79;76.96
77467;DHT22;66564;42.482;25.548;2023-04-03T17:36:08;9.79;75.80
77467;DHT22;66564;42.482;25.548;2023-04-03T17:38:54;9.77;76.61
77467;DHT22;66564;42.482;25.548;2023-04-03T17:42:19;9.84;76.53
77467;DHT22;66564;42.482;25.548;2023-04-03T17:45:45;9.79;76.76
77467;DHT22;66564;42.482;25.548;2023-04-03T17:49:11;9.71;78.03
77467;DHT22;66564;42.482;25.548;2023-04-03T17:52:39;9.77;78.13
77467;DHT22;66564;42.482;25.548;2023-04-03T17:56:06;9.77;77.83
77467;DHT22;66564;42.482;25.548;2023-04-03T17:59:31;9.67;77.28
77467;DHT22;66564;42.482;25.548;2023-04-03T18:02:27;9.67;77.42
77467;DHT22;66564;42.482;25.548;2023-04-03T18:04:54;9.61;76.83
77467;DHT22;66564;42.482;25.548;2023-04-03T18:07:20;9.64;76.61
77467;DHT22;66564;42.482;25.548;2023-04-03T18:09:47;9.64;76.67
77467;DHT22;66564;42.482;25.548;2023-04-03T18:12:34;9.65;75.97
77467;DHT22;66564;42.482;25.548;2023-04-03T18:15:39;9.77;74.95
77467;DHT22;66564;42.482;25.548;2023-04-03T18:18:29;9.82;74.11
77467;DHT22;66564;42.482;25.548;2023-04-03T18:21:55;9.78;73.97
77467;DHT22;66564;42.482;25.548;2023-04-03T18:25:23;9.79;73.72
77467;DHT22;66564;42.482;25.548;2023-04-03T18:28:46;9.85;73.63
77467;DHT22;66564;42.482;25.548;2023-04-03T18:32:11;9.81;73.39
77467;DHT22;66564;42.482;25.548;2023-04-03T18:35:17;9.84;73.36
77467;DHT22;66564;42.482;25.548;2023-04-03T18:37:43;9.82;73.02
77467;DHT22;66564;42.482;25.548;2023-04-03T18:40:10;9.88;73.04
77467;DHT22;66564;42.482;25.548;2023-04-03T18:42:38;9.89;72.32
77467;DHT22;66564;42.482;25.548;2023-04-03T18:45:05;9.88;71.67
77467;DHT22;66564;42.482;25.548;2023-04-03T18:47:31;9.88;71.94
77467;DHT22;66564;42.482;25.548;2023-04-03T18:49:57;9.88;72.20
77467;DHT22;66564;42.482;25.548;2023-04-03T18:52:23;9.82;72.80
77467;DHT22;66564;42.482;25.548;2023-04-03T18:54:50;9.86;72.72
77467;DHT22;66564;42.482;25.548;2023-04-03T18:57:15;9.89;72.65
77467;DHT22;66564;42.482;25.548;2023-04-03T18:59:41;9.89;72.34
77467;DHT22;66564;42.482;25.548;2023-04-03T19:02:07;9.81;73.26
77467;DHT22;66564;42.482;25.548;2023-04-03T19:04:33;9.81;73.89
77467;DHT22;66564;42.482;25.548;2023-04-03T19:07:20;9.84;72.64
77467;DHT22;66564;42.482;25.548;2023-04-03T19:10:25;9.70;74.60
77467;DHT22;66564;42.482;25.548;2023-04-03T19:12:51;9.67;75.42
77467;DHT22;66564;42.482;25.548;2023-04-03T19:15:20;9.58;75.14
77467;DHT22;66564;42.482;25.548;2023-04-03T19:18:07;9.64;75.25
77467;DHT22;66564;42.482;25.548;2023-04-03T19:21:12;9.48;75.05
77467;DHT22;66564;42.482;25.548;2023-04-03T19:23:59;9.62;74.42
77467;DHT22;66564;42.482;25.548;2023-04-03T19:27:24;9.45;75.65
77467;DHT22;66564;42.482;25.548;2023-04-03T19:30:29;9.27;75.87
77467;DHT22;66564;42.482;25.548;2023-04-03T19:32:57;9.34;76.29
77467;DHT22;66564;42.482;25.548;2023-04-03T19:35:23;9.37;76.07
77467;DHT22;66564;42.482;25.548;2023-04-03T19:37:48;9.11;77.15
77467;DHT22;66564;42.482;25.548;2023-04-03T19:40:16;9.14;77.22
77467;DHT22;66564;42.482;25.548;2023-04-03T19:42:43;9.10;77.67
77467;DHT22;66564;42.482;25.548;2023-04-03T19:45:11;9.19;78.15
77467;DHT22;66564;42.482;25.548;2023-04-03T19:47:59;9.28;78.19
77467;DHT22;66564;42.482;25.548;2023-04-03T19:50:46;9.23;78.80
77467;DHT22;66564;42.482;25.548;2023-04-03T19:54:11;9.01;79.59
77467;DHT22;66564;42.482;25.548;2023-04-03T19:57:18;8.94;79.35
77467;DHT22;66564;42.482;25.548;2023-04-03T20:00:03;8.84;79.48
77467;DHT22;66564;42.482;25.548;2023-04-03T20:03:28;8.93;78.96
77467;DHT22;66564;42.482;25.548;2023-04-03T20:06:54;8.93;79.07
77467;DHT22;66564;42.482;25.548;2023-04-03T20:10:19;8.77;79.54
77467;DHT22;66564;42.482;25.548;2023-04-03T20:13:47;8.89;79.08
77467;DHT22;66564;42.482;25.548;2023-04-03T20:17:09;8.91;78.67
77467;DHT22;66564;42.482;25.548;2023-04-03T20:20:35;8.91;78.37
77467;DHT22;66564;42.482;25.548;2023-04-03T20:24:00;9.00;77.76
77467;DHT22;66564;42.482;25.548;2023-04-03T20:27:25;9.00;78.49
77467;DHT22;66564;42.482;25.548;2023-04-03T20:30:51;8.87;78.85
77467;DHT22;66564;42.482;25.548;2023-04-03T20:34:16;8.76;79.21
77467;DHT22;66564;42.482;25.548;2023-04-03T20:37:41;8.65;79.89
77467;DHT22;66564;42.482;25.548;2023-04-03T20:41:06;8.59;80.67
77467;DHT22;66564;42.482;25.548;2023-04-03T20:44:31;8.63;80.91
77467;DHT22;66564;42.482;25.548;2023-04-03T20:47:57;8.62;80.87
77467;DHT22;66564;42.482;25.548;2023-04-03T20:51:31;8.59;81.21
77467;DHT22;66564;42.482;25.548;2023-04-03T20:54:57;8.36;82.49
77467;DHT22;66564;42.482;25.548;2023-04-03T20:58:22;8.31;83.35